sensor_id;sensor_type;location;lat;lon;timestamp;pressure;altitude;pressure_sealevel;temperature;humidity
9935;BME280;5006;41.828;23.478;2023-02-11T00:00:11;91491.06;;;6.54;43.28
9935;BME280;5006;41.828;23.478;2023-02-11T00:01:19;91495.06;;;6.48;43.35
9935;BME280;5006;41.828;23.478;2023-02-11T00:02:25;91490.75;;;6.00;42.33
9935;BME280;5006;41.828;23.478;2023-02-11T00:03:32;91499.88;;;5.46;42.02
9935;BME280;5006;41.828;23.478;2023-02-11T00:04:38;91496.50;;;4.96;42.83
9935;BME280;5006;41.828;23.478;2023-02-11T00:05:44;91496.19;;;4.48;43.04
9935;BME280;5006;41.828;23.478;2023-02-11T00:06:49;91502.34;;;4.89;42.08
9935;BME280;5006;41.828;23.478;2023-02-11T00:07:54;91498.28;;;5.98;40.67
9935;BME280;5006;41.828;23.478;2023-02-11T00:08:59;91505.72;;;5.39;40.95
9935;BME280;5006;41.828;23.478;2023-02-11T00:10:05;91507.63;;;5.18;41.17
9935;BME280;5006;41.828;23.478;2023-02-11T00:11:12;91501.19;;;4.70;41.23
9935;BME280;5006;41.828;23.478;2023-02-11T00:12:18;91506.16;;;4.13;42.18
9935;BME280;5006;41.828;23.478;2023-02-11T00:13:25;91514.66;;;3.99;42.94
9935;BME280;5006;41.828;23.478;2023-02-11T00:14:30;91514.69;;;4.65;42.58
9935;BME280;5006;41.828;23.478;2023-02-11T00:15:35;91520.84;;;4.48;42.59
9935;BME280;5006;41.828;23.478;2023-02-11T00:16:41;91512.34;;;4.63;42.18
9935;BME280;5006;41.828;23.478;2023-02-11T00:17:46;91515.59;;;4.69;42.38
9935;BME280;5006;41.828;23.478;2023-02-11T00:18:52;91518.75;;;4.33;42.91
9935;BME280;5006;41.828;23.478;2023-02-11T00:19:57;91520.69;;;4.53;42.29
9935;BME280;5006;41.828;23.478;2023-02-11T00:21:06;91519.91;;;5.23;41.18
9935;BME280;5006;41.828;23.478;2023-02-11T00:22:12;91524.53;;;5.14;41.20
9935;BME280;5006;41.828;23.478;2023-02-11T00:23:18;91530.88;;;5.42;41.62
9935;BME280;5006;41.828;23.478;2023-02-11T00:24:22;91524.75;;;6.15;40.54
9935;BME280;5006;41.828;23.478;2023-02-11T00:25:28;91534.50;;;5.58;41.60
9935;BME280;5006;41.828;23.478;2023-02-11T00:26:34;91532.13;;;6.30;40.78
9935;BME280;5006;41.828;23.478;2023-02-11T00:27:40;91539.75;;;5.87;41.39
9935;BME280;5006;41.828;23.478;2023-02-11T00:28:48;91532.88;;;5.86;40.63
9935;BME280;5006;41.828;23.478;2023-02-11T00:29:53;91536.53;;;6.37;39.90
9935;BME280;5006;41.828;23.478;2023-02-11T00:30:58;91536.00;;;6.00;40.76
9935;BME280;5006;41.828;23.478;2023-02-11T00:32:05;91542.06;;;6.21;41.67
9935;BME280;5006;41.828;23.478;2023-02-11T00:33:12;91527.25;;;5.26;42.05
9935;BME280;5006;41.828;23.478;2023-02-11T00:34:17;91537.31;;;5.20;42.91
9935;BME280;5006;41.828;23.478;2023-02-11T00:35:22;91529.69;;;5.72;42.59
9935;BME280;5006;41.828;23.478;2023-02-11T00:36:28;91529.59;;;4.78;43.77
9935;BME280;5006;41.828;23.478;2023-02-11T00:37:35;91527.72;;;5.07;44.86
9935;BME280;5006;41.828;23.478;2023-02-11T00:38:41;91531.53;;;5.18;43.89
9935;BME280;5006;41.828;23.478;2023-02-11T00:39:47;91544.31;;;5.25;45.15
9935;BME280;5006;41.828;23.478;2023-02-11T00:40:53;91543.97;;;5.67;44.88
9935;BME280;5006;41.828;23.478;2023-02-11T00:41:59;91531.72;;;5.34;45.29
9935;BME280;5006;41.828;23.478;2023-02-11T00:43:04;91524.66;;;4.39;46.28
9935;BME280;5006;41.828;23.478;2023-02-11T00:44:11;91530.34;;;4.87;46.26
9935;BME280;5006;41.828;23.478;2023-02-11T00:45:17;91524.41;;;4.52;46.21
9935;BME280;5006;41.828;23.478;2023-02-11T00:46:24;91523.66;;;4.81;46.56
9935;BME280;5006;41.828;23.478;2023-02-11T00:47:30;91527.09;;;4.81;46.88
9935;BME280;5006;41.828;23.478;2023-02-11T00:48:34;91519.81;;;4.90;47.04
9935;BME280;5006;41.828;23.478;2023-02-11T00:49:40;91523.34;;;4.82;47.14
9935;BME280;5006;41.828;23.478;2023-02-11T00:50:45;91524.72;;;4.13;47.96
9935;BME280;5006;41.828;23.478;2023-02-11T00:51:50;91517.34;;;4.36;48.02
9935;BME280;5006;41.828;23.478;2023-02-11T00:52:55;91511.19;;;4.44;47.26
9935;BME280;5006;41.828;23.478;2023-02-11T00:54:01;91517.38;;;5.06;45.98
9935;BME280;5006;41.828;23.478;2023-02-11T00:55:06;91513.53;;;4.45;45.13
9935;BME280;5006;41.828;23.478;2023-02-11T00:56:12;91518.44;;;4.26;44.22
9935;BME280;5006;41.828;23.478;2023-02-11T00:57:17;91516.44;;;4.52;44.20
9935;BME280;5006;41.828;23.478;2023-02-11T00:58:22;91508.53;;;4.44;44.89
9935;BME280;5006;41.828;23.478;2023-02-11T00:59:28;91513.72;;;4.32;44.97
9935;BME280;5006;41.828;23.478;2023-02-11T01:00:34;91508.25;;;5.15;43.34
9935;BME280;5006;41.828;23.478;2023-02-11T01:01:39;91511.84;;;5.72;42.30
9935;BME280;5006;41.828;23.478;2023-02-11T01:02:45;91509.38;;;5.88;41.67
9935;BME280;5006;41.828;23.478;2023-02-11T01:03:50;91511.72;;;5.69;41.50
9935;BME280;5006;41.828;23.478;2023-02-11T01:04:56;91510.88;;;5.24;42.36
9935;BME280;5006;41.828;23.478;2023-02-11T01:06:05;91511.81;;;5.40;42.33
9935;BME280;5006;41.828;23.478;2023-02-11T01:07:14;91507.53;;;5.06;43.63
9935;BME280;5006;41.828;23.478;2023-02-11T01:08:18;91509.16;;;4.99;44.51
9935;BME280;5006;41.828;23.478;2023-02-11T01:09:24;91502.69;;;5.08;44.40
9935;BME280;5006;41.828;23.478;2023-02-11T01:10:29;91510.31;;;5.10;45.19
9935;BME280;5006;41.828;23.478;2023-02-11T01:11:34;91504.41;;;4.84;44.09
9935;BME280;5006;41.828;23.478;2023-02-11T01:12:39;91506.13;;;5.50;43.37
9935;BME280;5006;41.828;23.478;2023-02-11T01:13:47;91499.56;;;5.06;45.98
9935;BME280;5006;41.828;23.478;2023-02-11T01:14:54;91507.03;;;5.13;45.86
9935;BME280;5006;41.828;23.478;2023-02-11T01:16:00;91510.13;;;5.15;44.48
9935;BME280;5006;41.828;23.478;2023-02-11T01:17:05;91511.03;;;4.49;42.71
9935;BME280;5006;41.828;23.478;2023-02-11T01:18:10;91508.88;;;4.34;42.86
9935;BME280;5006;41.828;23.478;2023-02-11T01:19:15;91505.63;;;4.86;42.33
9935;BME280;5006;41.828;23.478;2023-02-11T01:20:26;91505.31;;;5.49;42.22
9935;BME280;5006;41.828;23.478;2023-02-11T01:21:30;91500.38;;;6.36;41.50
9935;BME280;5006;41.828;23.478;2023-02-11T01:22:36;91503.66;;;6.10;41.13
9935;BME280;5006;41.828;23.478;2023-02-11T01:23:43;91512.50;;;5.90;43.40
9935;BME280;5006;41.828;23.478;2023-02-11T01:24:49;91506.63;;;5.64;44.75
9935;BME280;5006;41.828;23.478;2023-02-11T01:25:54;91498.19;;;4.80;44.97
9935;BME280;5006;41.828;23.478;2023-02-11T01:27:01;91495.94;;;5.84;42.61
9935;BME280;5006;41.828;23.478;2023-02-11T01:28:05;91501.47;;;6.35;41.18
9935;BME280;5006;41.828;23.478;2023-02-11T01:29:12;91492.63;;;6.91;40.22
9935;BME280;5006;41.828;23.478;2023-02-11T01:30:18;91491.50;;;6.80;40.42
9935;BME280;5006;41.828;23.478;2023-02-11T01:31:25;91486.84;;;6.53;41.24
9935;BME280;5006;41.828;23.478;2023-02-11T01:32:30;91494.25;;;6.24;42.28
9935;BME280;5006;41.828;23.478;2023-02-11T01:33:36;91485.69;;;6.07;42.77
9935;BME280;5006;41.828;23.478;2023-02-11T01:34:40;91489.25;;;6.34;43.39
9935;BME280;5006;41.828;23.478;2023-02-11T01:35:46;91488.28;;;6.51;42.76
9935;BME280;5006;41.828;23.478;2023-02-11T01:36:56;91494.28;;;6.48;42.80
9935;BME280;5006;41.828;23.478;2023-02-11T01:38:01;91495.06;;;6.48;42.19
9935;BME280;5006;41.828;23.478;2023-02-11T01:39:06;91493.28;;;6.52;41.57
9935;BME280;5006;41.828;23.478;2023-02-11T01:40:16;91493.50;;;6.83;40.53
9935;BME280;5006;41.828;23.478;2023-02-11T01:41:22;91493.94;;;6.49;40.40
9935;BME280;5006;41.828;23.478;2023-02-11T01:42:28;91499.59;;;5.80;41.01
9935;BME280;5006;41.828;23.478;2023-02-11T01:43:34;91497.09;;;5.95;41.28
9935;BME280;5006;41.828;23.478;2023-02-11T01:44:40;91490.97;;;5.95;40.71
9935;BME280;5006;41.828;23.478;2023-02-11T01:46:00;91495.28;;;5.87;40.94
9935;BME280;5006;41.828;23.478;2023-02-11T01:47:07;91499.41;;;5.97;40.77
9935;BME280;5006;41.828;23.478;2023-02-11T01:48:13;91496.41;;;5.66;41.96
9935;BME280;5006;41.828;23.478;2023-02-11T01:49:22;91499.59;;;4.98;42.93
9935;BME280;5006;41.828;23.478;2023-02-11T01:50:29;91508.38;;;5.19;42.91
9935;BME280;5006;41.828;23.478;2023-02-11T01:51:37;91505.00;;;5.10;42.65
9935;BME280;5006;41.828;23.478;2023-02-11T01:52:44;91501.25;;;5.31;43.08
9935;BME280;5006;41.828;23.478;2023-02-11T01:53:53;91500.22;;;4.54;43.80
9935;BME280;5006;41.828;23.478;2023-02-11T01:55:17;91493.13;;;4.87;42.73
9935;BME280;5006;41.828;23.478;2023-02-11T01:56:46;91501.00;;;5.04;43.11
9935;BME280;5006;41.828;23.478;2023-02-11T01:58:11;91502.22;;;5.27;42.50
9935;BME280;5006;41.828;23.478;2023-02-11T01:59:21;91497.16;;;5.34;41.53
9935;BME280;5006;41.828;23.478;2023-02-11T02:00:31;91494.56;;;5.25;41.86
9935;BME280;5006;41.828;23.478;2023-02-11T02:01:43;91483.94;;;4.84;44.05
9935;BME280;5006;41.828;23.478;2023-02-11T02:02:55;91479.84;;;4.58;44.80
9935;BME280;5006;41.828;23.478;2023-02-11T02:04:05;91477.44;;;4.07;45.93
9935;BME280;5006;41.828;23.478;2023-02-11T02:05:24;91484.94;;;4.71;45.20
9935;BME280;5006;41.828;23.478;2023-02-11T02:06:37;91480.81;;;5.23;44.58
9935;BME280;5006;41.828;23.478;2023-02-11T02:07:53;91477.91;;;5.69;43.04
9935;BME280;5006;41.828;23.478;2023-02-11T02:09:03;91480.44;;;5.66;42.27
9935;BME280;5006;41.828;23.478;2023-02-11T02:10:13;91485.63;;;5.30;42.45
9935;BME280;5006;41.828;23.478;2023-02-11T02:11:21;91476.06;;;5.49;41.65
9935;BME280;5006;41.828;23.478;2023-02-11T02:12:26;91472.09;;;4.53;44.06
9935;BME280;5006;41.828;23.478;2023-02-11T02:13:33;91468.00;;;5.05;43.92
9935;BME280;5006;41.828;23.478;2023-02-11T02:14:41;91454.91;;;4.79;44.04
9935;BME280;5006;41.828;23.478;2023-02-11T02:15:49;91460.72;;;4.44;44.46
9935;BME280;5006;41.828;23.478;2023-02-11T02:16:56;91468.06;;;4.47;43.91
9935;BME280;5006;41.828;23.478;2023-02-11T02:18:08;91470.53;;;4.52;44.35
9935;BME280;5006;41.828;23.478;2023-02-11T02:19:49;91472.00;;;4.12;46.67
9935;BME280;5006;41.828;23.478;2023-02-11T02:21:41;91482.31;;;4.92;44.86
9935;BME280;5006;41.828;23.478;2023-02-11T02:26:52;91484.00;;;4.96;43.70
9935;BME280;5006;41.828;23.478;2023-02-11T02:28:14;91480.53;;;4.75;44.02
9935;BME280;5006;41.828;23.478;2023-02-11T02:31:22;91486.31;;;4.48;44.79
9935;BME280;5006;41.828;23.478;2023-02-11T02:32:38;91480.84;;;4.16;45.60
9935;BME280;5006;41.828;23.478;2023-02-11T02:33:52;91493.75;;;3.97;45.73
9935;BME280;5006;41.828;23.478;2023-02-11T02:35:03;91491.47;;;4.16;45.13
9935;BME280;5006;41.828;23.478;2023-02-11T02:36:17;91494.91;;;3.71;46.25
9935;BME280;5006;41.828;23.478;2023-02-11T02:37:31;91483.09;;;3.51;47.59
9935;BME280;5006;41.828;23.478;2023-02-11T02:38:43;91482.13;;;3.64;47.17
9935;BME280;5006;41.828;23.478;2023-02-11T02:39:52;91479.00;;;4.17;46.34
9935;BME280;5006;41.828;23.478;2023-02-11T02:41:01;91476.06;;;4.10;46.26
9935;BME280;5006;41.828;23.478;2023-02-11T02:42:08;91473.66;;;3.79;46.18
9935;BME280;5006;41.828;23.478;2023-02-11T02:43:14;91476.03;;;4.47;45.50
9935;BME280;5006;41.828;23.478;2023-02-11T02:44:21;91476.31;;;4.54;45.31
9935;BME280;5006;41.828;23.478;2023-02-11T02:45:27;91477.28;;;4.12;46.16
9935;BME280;5006;41.828;23.478;2023-02-11T02:46:34;91486.63;;;4.18;46.63
9935;BME280;5006;41.828;23.478;2023-02-11T02:47:40;91477.50;;;4.65;46.59
9935;BME280;5006;41.828;23.478;2023-02-11T02:48:46;91486.28;;;5.06;46.21
9935;BME280;5006;41.828;23.478;2023-02-11T02:49:52;91488.69;;;4.50;45.52
9935;BME280;5006;41.828;23.478;2023-02-11T02:51:08;91489.88;;;4.61;44.99
9935;BME280;5006;41.828;23.478;2023-02-11T02:52:27;91497.22;;;4.84;43.81
9935;BME280;5006;41.828;23.478;2023-02-11T02:53:47;91486.53;;;5.13;44.11
9935;BME280;5006;41.828;23.478;2023-02-11T02:55:33;91496.56;;;5.08;43.81
9935;BME280;5006;41.828;23.478;2023-02-11T02:56:46;91493.00;;;4.83;44.02
9935;BME280;5006;41.828;23.478;2023-02-11T02:58:08;91496.47;;;4.18;47.00
9935;BME280;5006;41.828;23.478;2023-02-11T02:59:29;91488.47;;;4.26;46.88
9935;BME280;5006;41.828;23.478;2023-02-11T03:00:40;91487.72;;;4.17;46.89
9935;BME280;5006;41.828;23.478;2023-02-11T03:01:57;91482.94;;;4.39;46.10
9935;BME280;5006;41.828;23.478;2023-02-11T03:03:12;91480.00;;;4.61;45.99
9935;BME280;5006;41.828;23.478;2023-02-11T03:04:22;91474.84;;;4.65;44.78
9935;BME280;5006;41.828;23.478;2023-02-11T03:05:37;91470.56;;;4.93;45.17
9935;BME280;5006;41.828;23.478;2023-02-11T03:07:11;91474.72;;;4.82;46.05
9935;BME280;5006;41.828;23.478;2023-02-11T03:08:24;91471.00;;;4.54;46.16
9935;BME280;5006;41.828;23.478;2023-02-11T03:09:32;91477.75;;;4.43;46.17
9935;BME280;5006;41.828;23.478;2023-02-11T03:10:44;91475.09;;;4.72;45.36
9935;BME280;5006;41.828;23.478;2023-02-11T03:11:50;91475.88;;;4.72;45.81
9935;BME280;5006;41.828;23.478;2023-02-11T03:12:56;91469.75;;;4.51;45.49
9935;BME280;5006;41.828;23.478;2023-02-11T03:14:05;91476.41;;;5.27;45.22
9935;BME280;5006;41.828;23.478;2023-02-11T03:15:12;91474.84;;;5.06;45.26
9935;BME280;5006;41.828;23.478;2023-02-11T03:16:20;91473.94;;;5.22;45.97
9935;BME280;5006;41.828;23.478;2023-02-11T03:17:27;91472.13;;;4.73;45.25
9935;BME280;5006;41.828;23.478;2023-02-11T03:18:39;91465.69;;;4.25;45.20
9935;BME280;5006;41.828;23.478;2023-02-11T03:19:47;91470.97;;;3.96;46.96
9935;BME280;5006;41.828;23.478;2023-02-11T03:20:55;91470.66;;;4.26;45.91
9935;BME280;5006;41.828;23.478;2023-02-11T03:22:02;91466.72;;;4.61;47.26
9935;BME280;5006;41.828;23.478;2023-02-11T03:23:11;91467.56;;;4.53;47.63
9935;BME280;5006;41.828;23.478;2023-02-11T03:24:22;91471.16;;;4.20;48.14
9935;BME280;5006;41.828;23.478;2023-02-11T03:25:34;91460.97;;;4.30;49.03
9935;BME280;5006;41.828;23.478;2023-02-11T03:26:43;91459.63;;;4.45;48.21
9935;BME280;5006;41.828;23.478;2023-02-11T03:27:53;91460.06;;;4.55;46.83
9935;BME280;5006;41.828;23.478;2023-02-11T03:29:05;91466.16;;;4.76;46.45
9935;BME280;5006;41.828;23.478;2023-02-11T03:30:17;91466.16;;;5.38;45.28
9935;BME280;5006;41.828;23.478;2023-02-11T03:31:28;91476.00;;;5.37;45.48
9935;BME280;5006;41.828;23.478;2023-02-11T03:32:37;91470.72;;;4.96;47.11
9935;BME280;5006;41.828;23.478;2023-02-11T03:33:52;91468.47;;;5.39;45.90
9935;BME280;5006;41.828;23.478;2023-02-11T03:35:02;91471.78;;;5.36;46.49
9935;BME280;5006;41.828;23.478;2023-02-11T03:36:12;91472.72;;;4.79;46.82
9935;BME280;5006;41.828;23.478;2023-02-11T03:37:21;91468.66;;;5.02;45.91
9935;BME280;5006;41.828;23.478;2023-02-11T03:38:31;91468.13;;;5.08;46.09
9935;BME280;5006;41.828;23.478;2023-02-11T03:39:39;91474.19;;;5.09;44.93
9935;BME280;5006;41.828;23.478;2023-02-11T03:40:48;91461.25;;;5.07;45.17
9935;BME280;5006;41.828;23.478;2023-02-11T03:41:54;91468.78;;;5.05;45.69
9935;BME280;5006;41.828;23.478;2023-02-11T03:43:06;91462.72;;;4.76;45.81
9935;BME280;5006;41.828;23.478;2023-02-11T03:44:13;91466.22;;;5.09;45.07
9935;BME280;5006;41.828;23.478;2023-02-11T03:45:22;91465.38;;;4.76;45.49
9935;BME280;5006;41.828;23.478;2023-02-11T03:46:30;91459.78;;;4.48;45.21
9935;BME280;5006;41.828;23.478;2023-02-11T03:47:39;91467.84;;;4.81;44.60
9935;BME280;5006;41.828;23.478;2023-02-11T03:48:49;91460.84;;;4.76;46.07
9935;BME280;5006;41.828;23.478;2023-02-11T03:49:55;91453.59;;;4.85;45.33
9935;BME280;5006;41.828;23.478;2023-02-11T03:51:06;91459.44;;;4.21;45.69
9935;BME280;5006;41.828;23.478;2023-02-11T03:52:12;91453.78;;;4.60;46.23
9935;BME280;5006;41.828;23.478;2023-02-11T03:53:21;91451.44;;;4.79;45.32
9935;BME280;5006;41.828;23.478;2023-02-11T03:54:29;91453.81;;;4.22;44.62
9935;BME280;5006;41.828;23.478;2023-02-11T03:55:37;91448.03;;;4.99;44.01
9935;BME280;5006;41.828;23.478;2023-02-11T03:56:48;91446.09;;;4.38;44.91
9935;BME280;5006;41.828;23.478;2023-02-11T03:57:55;91453.66;;;4.97;44.92
9935;BME280;5006;41.828;23.478;2023-02-11T03:59:00;91445.69;;;5.83;42.66
9935;BME280;5006;41.828;23.478;2023-02-11T04:00:07;91454.56;;;5.87;41.59
9935;BME280;5006;41.828;23.478;2023-02-11T04:01:18;91448.16;;;6.00;41.27
9935;BME280;5006;41.828;23.478;2023-02-11T04:02:26;91454.69;;;5.58;41.46
9935;BME280;5006;41.828;23.478;2023-02-11T04:03:32;91451.97;;;4.23;44.21
9935;BME280;5006;41.828;23.478;2023-02-11T04:04:39;91448.94;;;4.82;42.47
9935;BME280;5006;41.828;23.478;2023-02-11T04:05:44;91457.09;;;5.18;43.16
9935;BME280;5006;41.828;23.478;2023-02-11T04:06:51;91450.69;;;5.52;42.15
9935;BME280;5006;41.828;23.478;2023-02-11T04:07:55;91456.63;;;4.96;43.47
9935;BME280;5006;41.828;23.478;2023-02-11T04:09:01;91456.19;;;4.94;44.21
9935;BME280;5006;41.828;23.478;2023-02-11T04:10:06;91461.50;;;4.94;42.62
9935;BME280;5006;41.828;23.478;2023-02-11T04:11:12;91466.22;;;5.09;42.41
9935;BME280;5006;41.828;23.478;2023-02-11T04:12:16;91468.56;;;5.63;41.78
9935;BME280;5006;41.828;23.478;2023-02-11T04:13:22;91467.59;;;4.74;43.43
9935;BME280;5006;41.828;23.478;2023-02-11T04:14:27;91467.03;;;5.09;42.99
9935;BME280;5006;41.828;23.478;2023-02-11T04:15:33;91463.31;;;5.02;43.35
9935;BME280;5006;41.828;23.478;2023-02-11T04:16:37;91459.13;;;4.80;43.05
9935;BME280;5006;41.828;23.478;2023-02-11T04:17:44;91471.09;;;5.07;43.12
9935;BME280;5006;41.828;23.478;2023-02-11T04:18:48;91465.75;;;5.27;42.24
9935;BME280;5006;41.828;23.478;2023-02-11T04:19:55;91462.47;;;4.40;43.08
9935;BME280;5006;41.828;23.478;2023-02-11T04:21:00;91458.16;;;4.56;44.18
9935;BME280;5006;41.828;23.478;2023-02-11T04:22:06;91458.53;;;4.17;44.79
9935;BME280;5006;41.828;23.478;2023-02-11T04:23:11;91455.31;;;4.32;46.98
9935;BME280;5006;41.828;23.478;2023-02-11T04:24:17;91459.53;;;4.04;47.89
9935;BME280;5006;41.828;23.478;2023-02-11T04:25:21;91465.09;;;3.74;49.10
9935;BME280;5006;41.828;23.478;2023-02-11T04:26:27;91461.19;;;4.46;47.48
9935;BME280;5006;41.828;23.478;2023-02-11T04:27:32;91454.53;;;4.60;47.06
9935;BME280;5006;41.828;23.478;2023-02-11T04:28:38;91459.63;;;4.16;47.86
9935;BME280;5006;41.828;23.478;2023-02-11T04:29:42;91451.50;;;4.50;47.29
9935;BME280;5006;41.828;23.478;2023-02-11T04:30:48;91454.41;;;4.77;46.15
9935;BME280;5006;41.828;23.478;2023-02-11T04:31:53;91451.09;;;5.42;45.44
9935;BME280;5006;41.828;23.478;2023-02-11T04:32:59;91450.78;;;5.55;45.24
9935;BME280;5006;41.828;23.478;2023-02-11T04:34:03;91447.56;;;5.17;45.60
9935;BME280;5006;41.828;23.478;2023-02-11T04:35:10;91458.09;;;4.93;45.40
9935;BME280;5006;41.828;23.478;2023-02-11T04:36:15;91445.44;;;5.11;44.77
9935;BME280;5006;41.828;23.478;2023-02-11T04:37:21;91445.03;;;4.80;44.76
9935;BME280;5006;41.828;23.478;2023-02-11T04:38:25;91435.81;;;4.77;44.85
9935;BME280;5006;41.828;23.478;2023-02-11T04:39:31;91442.59;;;4.95;44.21
9935;BME280;5006;41.828;23.478;2023-02-11T04:40:36;91437.84;;;5.54;43.99
9935;BME280;5006;41.828;23.478;2023-02-11T04:41:42;91445.44;;;5.76;44.26
9935;BME280;5006;41.828;23.478;2023-02-11T04:42:46;91443.38;;;5.61;43.97
9935;BME280;5006;41.828;23.478;2023-02-11T04:43:53;91447.59;;;5.50;43.85
9935;BME280;5006;41.828;23.478;2023-02-11T04:44:57;91448.53;;;5.66;42.68
9935;BME280;5006;41.828;23.478;2023-02-11T04:46:04;91448.16;;;5.88;42.12
9935;BME280;5006;41.828;23.478;2023-02-11T04:47:09;91448.88;;;5.44;42.53
9935;BME280;5006;41.828;23.478;2023-02-11T04:48:16;91446.34;;;4.94;43.71
9935;BME280;5006;41.828;23.478;2023-02-11T04:49:20;91445.53;;;5.14;43.26
9935;BME280;5006;41.828;23.478;2023-02-11T04:50:28;91445.56;;;4.94;44.01
9935;BME280;5006;41.828;23.478;2023-02-11T04:51:52;91450.41;;;3.13;45.40
9935;BME280;5006;41.828;23.478;2023-02-11T04:52:57;91456.63;;;2.66;46.40
9935;BME280;5006;41.828;23.478;2023-02-11T04:54:02;91461.94;;;2.66;46.29
9935;BME280;5006;41.828;23.478;2023-02-11T04:55:07;91464.84;;;4.04;44.77
9935;BME280;5006;41.828;23.478;2023-02-11T04:56:12;91457.22;;;4.03;44.53
9935;BME280;5006;41.828;23.478;2023-02-11T04:57:17;91456.75;;;3.92;44.77
9935;BME280;5006;41.828;23.478;2023-02-11T04:58:22;91455.75;;;4.42;44.04
9935;BME280;5006;41.828;23.478;2023-02-11T04:59:28;91453.72;;;4.89;42.76
9935;BME280;5006;41.828;23.478;2023-02-11T05:00:33;91453.72;;;4.39;43.18
9935;BME280;5006;41.828;23.478;2023-02-11T05:01:38;91457.22;;;4.31;43.72
9935;BME280;5006;41.828;23.478;2023-02-11T05:02:43;91457.47;;;5.29;42.46
9935;BME280;5006;41.828;23.478;2023-02-11T05:03:49;91460.50;;;5.39;41.88
9935;BME280;5006;41.828;23.478;2023-02-11T05:04:54;91464.25;;;5.71;40.98
9935;BME280;5006;41.828;23.478;2023-02-11T05:06:02;91463.47;;;5.58;41.20
9935;BME280;5006;41.828;23.478;2023-02-11T05:07:07;91458.78;;;5.55;41.27
9935;BME280;5006;41.828;23.478;2023-02-11T05:08:13;91457.81;;;5.92;41.17
9935;BME280;5006;41.828;23.478;2023-02-11T05:09:18;91457.81;;;6.04;40.32
9935;BME280;5006;41.828;23.478;2023-02-11T05:10:23;91466.75;;;5.55;40.49
9935;BME280;5006;41.828;23.478;2023-02-11T05:11:27;91467.34;;;5.61;40.63
9935;BME280;5006;41.828;23.478;2023-02-11T05:12:34;91464.44;;;5.01;40.90
9935;BME280;5006;41.828;23.478;2023-02-11T05:13:38;91471.88;;;5.07;40.80
9935;BME280;5006;41.828;23.478;2023-02-11T05:14:44;91465.03;;;4.77;41.73
9935;BME280;5006;41.828;23.478;2023-02-11T05:15:48;91470.09;;;5.32;41.55
9935;BME280;5006;41.828;23.478;2023-02-11T05:16:54;91473.41;;;5.49;40.94
9935;BME280;5006;41.828;23.478;2023-02-11T05:17:59;91464.25;;;5.71;40.49
9935;BME280;5006;41.828;23.478;2023-02-11T05:19:05;91469.00;;;5.33;40.56
9935;BME280;5006;41.828;23.478;2023-02-11T05:20:10;91464.00;;;4.70;41.06
9935;BME280;5006;41.828;23.478;2023-02-11T05:21:17;91458.22;;;4.47;40.76
9935;BME280;5006;41.828;23.478;2023-02-11T05:22:22;91466.16;;;4.97;40.29
9935;BME280;5006;41.828;23.478;2023-02-11T05:23:28;91464.19;;;4.44;41.39
9935;BME280;5006;41.828;23.478;2023-02-11T05:24:33;91465.91;;;4.69;40.91
9935;BME280;5006;41.828;23.478;2023-02-11T05:25:38;91457.47;;;4.38;41.79
9935;BME280;5006;41.828;23.478;2023-02-11T05:26:43;91462.56;;;3.86;42.23
9935;BME280;5006;41.828;23.478;2023-02-11T05:27:49;91457.66;;;4.33;42.53
9935;BME280;5006;41.828;23.478;2023-02-11T05:28:53;91455.69;;;3.85;42.93
9935;BME280;5006;41.828;23.478;2023-02-11T05:30:00;91454.22;;;3.50;45.20
9935;BME280;5006;41.828;23.478;2023-02-11T05:31:04;91454.28;;;3.33;47.25
9935;BME280;5006;41.828;23.478;2023-02-11T05:32:10;91462.25;;;2.90;49.25
9935;BME280;5006;41.828;23.478;2023-02-11T05:33:15;91455.41;;;2.72;49.63
9935;BME280;5006;41.828;23.478;2023-02-11T05:34:21;91455.91;;;3.63;47.79
9935;BME280;5006;41.828;23.478;2023-02-11T05:35:25;91455.16;;;4.00;47.12
9935;BME280;5006;41.828;23.478;2023-02-11T05:36:33;91460.19;;;4.30;46.24
9935;BME280;5006;41.828;23.478;2023-02-11T05:37:37;91454.00;;;4.46;45.53
9935;BME280;5006;41.828;23.478;2023-02-11T05:38:42;91459.78;;;4.48;45.21
9935;BME280;5006;41.828;23.478;2023-02-11T05:39:47;91457.63;;;4.13;44.71
9935;BME280;5006;41.828;23.478;2023-02-11T05:40:53;91462.09;;;4.99;42.87
9935;BME280;5006;41.828;23.478;2023-02-11T05:41:58;91457.22;;;5.54;42.07
9935;BME280;5006;41.828;23.478;2023-02-11T05:43:04;91463.97;;;5.19;41.39
9935;BME280;5006;41.828;23.478;2023-02-11T05:44:08;91464.03;;;4.41;43.39
9935;BME280;5006;41.828;23.478;2023-02-11T05:45:14;91476.22;;;4.42;43.36
9935;BME280;5006;41.828;23.478;2023-02-11T05:46:19;91467.59;;;4.45;43.20
9935;BME280;5006;41.828;23.478;2023-02-11T05:47:24;91472.63;;;4.01;43.61
9935;BME280;5006;41.828;23.478;2023-02-11T05:48:29;91461.34;;;3.83;44.53
9935;BME280;5006;41.828;23.478;2023-02-11T05:49:34;91469.50;;;4.07;44.51
9935;BME280;5006;41.828;23.478;2023-02-11T05:50:39;91468.16;;;3.93;44.54
9935;BME280;5006;41.828;23.478;2023-02-11T05:51:47;91476.69;;;5.14;43.25
9935;BME280;5006;41.828;23.478;2023-02-11T05:52:52;91474.06;;;5.46;41.26
9935;BME280;5006;41.828;23.478;2023-02-11T05:53:57;91478.22;;;5.68;41.50
9935;BME280;5006;41.828;23.478;2023-02-11T05:55:02;91480.91;;;5.15;41.50
9935;BME280;5006;41.828;23.478;2023-02-11T05:56:08;91474.47;;;4.46;44.07
9935;BME280;5006;41.828;23.478;2023-02-11T05:57:13;91472.44;;;4.43;44.51
9935;BME280;5006;41.828;23.478;2023-02-11T05:58:19;91477.44;;;4.73;43.98
9935;BME280;5006;41.828;23.478;2023-02-11T05:59:24;91476.63;;;5.22;43.39
9935;BME280;5006;41.828;23.478;2023-02-11T06:00:30;91483.22;;;5.90;42.23
9935;BME280;5006;41.828;23.478;2023-02-11T06:01:36;91484.50;;;5.31;42.24
9935;BME280;5006;41.828;23.478;2023-02-11T06:02:41;91482.06;;;5.05;43.29
9935;BME280;5006;41.828;23.478;2023-02-11T06:03:47;91478.44;;;5.42;43.05
9935;BME280;5006;41.828;23.478;2023-02-11T06:04:54;91479.28;;;5.55;44.33
9935;BME280;5006;41.828;23.478;2023-02-11T06:05:59;91475.78;;;5.30;43.91
9935;BME280;5006;41.828;23.478;2023-02-11T06:07:05;91480.34;;;5.42;43.39
9935;BME280;5006;41.828;23.478;2023-02-11T06:08:11;91473.81;;;5.72;43.63
9935;BME280;5006;41.828;23.478;2023-02-11T06:09:17;91472.75;;;5.52;43.29
9935;BME280;5006;41.828;23.478;2023-02-11T06:10:22;91472.50;;;5.78;43.77
9935;BME280;5006;41.828;23.478;2023-02-11T06:11:27;91468.91;;;5.74;43.25
9935;BME280;5006;41.828;23.478;2023-02-11T06:12:35;91465.53;;;5.00;43.90
9935;BME280;5006;41.828;23.478;2023-02-11T06:13:39;91474.59;;;5.40;44.28
9935;BME280;5006;41.828;23.478;2023-02-11T06:14:45;91472.78;;;5.97;42.54